Time;durP1;ratioP1;P1;durP2;ratioP2;P2;SDS_P1;SDS_P2;PMS_P1;PMS_P2;Temp;Humidity;BMP_temperature;BMP_pressure;BME280_temperature;BME280_humidity;BME280_pressure;Samples;Min_cycle;Max_cycle;Signal;HPM_P1;HPM_P2
2022/04/22 00:00:49;;;;;;;26.53;25.13;;;10.40;70.90;;;;;;5094657;28;20219;-73
2022/04/22 00:03:16;;;;;;;26.90;25.40;;;10.40;71.00;;;;;;5095313;28;20559;-73
2022/04/22 00:05:44;;;;;;;28.30;26.60;;;10.30;71.20;;;;;;5096151;28;20286;-73
2022/04/22 00:08:11;;;;;;;28.38;26.40;;;10.30;71.10;;;;;;5096103;28;20198;-73
2022/04/22 00:11:28;;;;;;;27.33;25.80;;;10.30;71.20;;;;;;5096289;28;20192;-73
2022/04/22 00:13:27;;;;;;;27.93;26.37;;;10.30;71.30;;;;;;5096633;28;20618;-73
2022/04/22 00:15:54;;;;;;;27.75;26.15;;;10.30;71.40;;;;;;5097230;28;20514;-73
2022/04/22 00:18:23;;;;;;;28.88;27.20;;;10.30;71.50;;;;;;5097587;28;20196;-73
2022/04/22 00:20:50;;;;;;;27.70;26.00;;;10.20;71.80;;;;;;5097062;28;20226;-73
2022/04/22 00:23:17;;;;;;;28.23;26.52;;;10.10;72.00;;;;;;5097785;28;20704;-73
2022/04/22 00:25:44;;;;;;;29.17;27.48;;;10.10;72.10;;;;;;5098776;28;20210;-73
2022/04/22 00:28:11;;;;;;;27.77;26.20;;;10.10;72.20;;;;;;5099814;28;20661;-73
2022/04/22 00:30:40;;;;;;;28.90;27.10;;;10.00;72.40;;;;;;5098301;28;20264;-73
2022/04/22 00:33:07;;;;;;;29.50;27.75;;;10.00;72.60;;;;;;5096890;28;20651;-73
2022/04/22 00:35:33;;;;;;;28.70;27.00;;;10.00;72.60;;;;;;5094905;28;20268;-73
2022/04/22 00:38:00;;;;;;;28.88;27.20;;;10.00;72.70;;;;;;5095055;28;20294;-73
2022/04/22 00:40:27;;;;;;;29.48;27.77;;;10.00;72.90;;;;;;5093926;28;20229;-73
2022/04/22 00:42:54;;;;;;;28.90;27.10;;;9.90;73.00;;;;;;5094509;28;20269;-73
2022/04/22 00:45:21;;;;;;;30.10;28.33;;;9.90;73.10;;;;;;5094238;28;20290;-73
2022/04/22 00:47:49;;;;;;;28.37;26.67;;;9.90;73.30;;;;;;5094393;28;20628;-73
2022/04/22 00:50:16;;;;;;;29.30;27.45;;;9.80;73.50;;;;;;5093854;28;20450;-73
2022/04/22 00:52:44;;;;;;;29.33;27.52;;;9.80;73.70;;;;;;5094432;28;20198;-73
2022/04/22 00:55:11;;;;;;;30.00;28.25;;;9.70;73.90;;;;;;5094397;28;20199;-73
2022/04/22 00:57:38;;;;;;;29.42;27.52;;;9.70;74.10;;;;;;5094289;28;20195;-73
2022/04/22 01:00:07;;;;;;;28.90;27.10;;;9.70;74.20;;;;;;5093520;28;20669;-73
2022/04/22 01:02:34;;;;;;;28.77;27.13;;;9.70;74.20;;;;;;5094290;28;20245;-73
2022/04/22 01:10:30;;;;;;;29.67;27.80;;;9.70;74.30;;;;;;5093834;28;20210;-73
2022/04/22 01:12:57;;;;;;;29.45;27.65;;;9.60;74.70;;;;;;5094270;28;20220;-73
2022/04/22 01:15:25;;;;;;;31.60;29.50;;;9.60;74.80;;;;;;5096046;28;20202;-74
2022/04/22 01:17:52;;;;;;;30.75;28.85;;;9.60;74.80;;;;;;5106478;28;20198;-73
2022/04/22 01:20:20;;;;;;;29.95;28.05;;;9.60;75.00;;;;;;5103619;28;20228;-73
2022/04/22 01:22:48;;;;;;;30.20;28.30;;;9.50;75.10;;;;;;5103833;28;20203;-73
2022/04/22 01:25:15;;;;;;;29.50;27.70;;;9.60;74.90;;;;;;5101864;28;20259;-73
2022/04/22 01:27:43;;;;;;;28.05;26.27;;;9.60;75.10;;;;;;5101036;28;20291;-73
2022/04/22 01:30:10;;;;;;;30.63;28.63;;;9.60;75.20;;;;;;5100845;28;20252;-73
2022/04/22 01:32:37;;;;;;;29.60;27.80;;;9.70;75.10;;;;;;5103397;28;20282;-73
2022/04/22 01:35:04;;;;;;;30.73;28.92;;;9.60;75.00;;;;;;5103109;28;20344;-73
2022/04/22 01:37:32;;;;;;;31.35;29.45;;;9.60;75.20;;;;;;5101501;28;20192;-73
2022/04/22 01:40:00;;;;;;;30.17;28.38;;;9.50;75.60;;;;;;5100063;28;20200;-73
2022/04/22 01:42:27;;;;;;;30.65;28.58;;;9.50;75.70;;;;;;5099969;28;20306;-73
2022/04/22 01:44:54;;;;;;;31.30;29.40;;;9.40;75.90;;;;;;5100631;28;20659;-73
2022/04/22 01:47:21;;;;;;;31.52;29.60;;;9.50;76.00;;;;;;5098946;28;20550;-74
2022/04/22 01:49:48;;;;;;;31.02;29.00;;;9.40;76.10;;;;;;5100945;28;20219;-73
2022/04/22 01:52:15;;;;;;;31.75;29.63;;;9.30;76.30;;;;;;5099986;28;20188;-74
2022/04/22 01:54:42;;;;;;;31.05;29.05;;;9.40;76.30;;;;;;5100258;28;20208;-73
2022/04/22 01:57:13;;;;;;;29.98;28.10;;;9.40;76.30;;;;;;5099239;28;20237;-73
2022/04/22 01:59:44;;;;;;;32.05;30.05;;;9.30;76.40;;;;;;5092660;28;20199;-72
2022/04/22 02:02:11;;;;;;;30.77;28.88;;;9.50;76.10;;;;;;5093162;28;21001;-73
2022/04/22 02:04:38;;;;;;;30.67;28.77;;;9.40;76.30;;;;;;5093271;28;20224;-73
2022/04/22 02:07:06;;;;;;;30.80;28.90;;;9.30;76.60;;;;;;5092975;28;20206;-73
2022/04/22 02:09:33;;;;;;;32.42;30.27;;;9.30;76.60;;;;;;5092420;28;20593;-73
2022/04/22 02:12:00;;;;;;;31.42;29.33;;;9.30;76.70;;;;;;5092826;28;20199;-73
2022/04/22 02:14:28;;;;;;;33.10;30.92;;;9.20;76.90;;;;;;5092749;28;20229;-73
2022/04/22 02:16:55;;;;;;;31.63;29.67;;;9.20;77.20;;;;;;5092820;28;20659;-73
2022/04/22 02:19:22;;;;;;;31.80;29.60;;;9.10;77.50;;;;;;5091866;28;20241;-73
2022/04/22 02:21:50;;;;;;;32.30;30.05;;;9.10;77.70;;;;;;5092553;28;20222;-73
2022/04/22 02:24:17;;;;;;;32.47;30.27;;;9.10;77.70;;;;;;5092653;28;20218;-73
2022/04/22 02:29:29;;;;;;;31.83;29.83;;;8.90;78.20;;;;;;5092089;28;20236;-73
2022/04/22 02:31:56;;;;;;;32.35;30.25;;;8.80;78.60;;;;;;5092586;28;20188;-73
2022/04/22 02:34:24;;;;;;;31.75;29.63;;;8.80;78.80;;;;;;5092386;28;20314;-72
2022/04/22 02:36:52;;;;;;;32.15;30.15;;;8.80;78.90;;;;;;5092544;28;20674;-73
2022/04/22 02:39:19;;;;;;;32.72;30.63;;;8.80;78.80;;;;;;5091628;28;20196;-73
2022/04/22 02:47:16;;;;;;;32.75;30.55;;;8.70;79.40;;;;;;5099126;28;20198;-73
2022/04/22 02:49:44;;;;;;;32.80;30.60;;;8.70;79.30;;;;;;5098407;28;20302;-72
2022/04/22 02:52:11;;;;;;;32.42;30.20;;;8.80;79.80;;;;;;5099278;28;20201;-73
2022/04/22 02:54:38;;;;;;;34.60;32.30;;;8.70;79.40;;;;;;5099022;28;20215;-73
2022/04/22 02:57:06;;;;;;;32.75;30.45;;;8.70;79.60;;;;;;5098971;28;20291;-73
2022/04/22 02:59:35;;;;;;;36.08;33.38;;;8.70;79.10;;;;;;5098504;28;20199;-73
2022/04/22 03:02:02;;;;;;;32.72;30.42;;;8.70;79.50;;;;;;5098635;28;20219;-73
2022/04/22 03:04:29;;;;;;;35.17;32.58;;;8.70;79.50;;;;;;5098819;28;20211;-73
2022/04/22 03:06:56;;;;;;;36.25;33.65;;;8.60;79.60;;;;;;5098933;28;20253;-73
2022/04/22 03:09:23;;;;;;;35.03;32.63;;;8.60;79.90;;;;;;5098468;28;20609;-73
2022/04/22 03:11:51;;;;;;;37.45;34.85;;;8.50;80.00;;;;;;5098882;28;20200;-73
2022/04/22 03:14:19;;;;;;;35.28;32.88;;;8.50;80.10;;;;;;5099076;28;20295;-73
2022/04/22 03:16:47;;;;;;;34.30;32.00;;;8.40;80.70;;;;;;5098611;28;20196;-73
2022/04/22 03:19:14;;;;;;;34.80;32.40;;;8.40;80.60;;;;;;5097792;28;20209;-73
2022/04/22 03:21:41;;;;;;;35.25;32.90;;;8.40;80.50;;;;;;5098695;28;20695;-73
2022/04/22 03:24:09;;;;;;;34.80;32.30;;;8.40;80.70;;;;;;5098535;28;20220;-73
2022/04/22 03:26:36;;;;;;;33.95;31.65;;;8.40;80.60;;;;;;5098550;28;20672;-73
2022/04/22 03:29:03;;;;;;;36.58;33.80;;;8.30;80.90;;;;;;5098465;28;20394;-73
2022/04/22 03:31:30;;;;;;;36.28;33.75;;;8.30;81.10;;;;;;5098235;28;20289;-73
2022/04/22 03:33:58;;;;;;;36.13;33.45;;;8.20;81.20;;;;;;5098621;28;20302;-73
2022/04/22 03:36:25;;;;;;;37.90;35.15;;;8.20;81.30;;;;;;5098485;28;20199;-73
2022/04/22 03:38:52;;;;;;;36.85;34.15;;;8.20;81.40;;;;;;5098616;28;20300;-73
2022/04/22 03:41:19;;;;;;;36.90;34.20;;;8.20;81.60;;;;;;5098097;28;20583;-73
2022/04/22 03:43:46;;;;;;;36.55;33.85;;;8.10;81.70;;;;;;5098430;28;20633;-73
2022/04/22 03:46:13;;;;;;;36.92;34.33;;;8.10;81.70;;;;;;5098611;28;20565;-73
2022/04/22 03:48:40;;;;;;;36.15;33.58;;;8.10;81.80;;;;;;5098567;28;20201;-73
2022/04/22 03:51:08;;;;;;;36.45;33.65;;;8.10;82.70;;;;;;5097979;28;20559;-73
2022/04/22 03:53:37;;;;;;;35.65;32.80;;;8.00;82.30;;;;;;5098799;28;20215;-73
2022/04/22 03:58:10;;;;;;;37.60;34.90;;;8.00;82.20;;;;;;5095981;28;20282;-73
2022/04/22 03:58:52;;;;;;;38.58;35.67;;;7.90;82.40;;;;;;5095320;28;20255;-73
2022/04/22 04:01:19;;;;;;;38.17;35.53;;;7.90;82.70;;;;;;5094639;28;20213;-73
2022/04/22 04:03:46;;;;;;;38.30;35.60;;;7.90;83.10;;;;;;5095087;28;20474;-73
2022/04/22 04:06:14;;;;;;;38.17;35.17;;;7.90;83.00;;;;;;5095143;28;20198;-73
2022/04/22 04:08:41;;;;;;;37.88;35.20;;;7.80;83.00;;;;;;5094862;28;20286;-73
2022/04/22 04:16:36;;;;;;;35.22;32.83;;;7.70;82.00;;;;;;5094918;28;20227;-73
2022/04/22 04:24:33;;;;;;;37.15;34.63;;;7.50;82.80;;;;;;5094491;28;20343;-73
2022/04/22 04:27:00;;;;;;;35.45;32.78;;;7.50;82.70;;;;;;5094726;28;20306;-73
2022/04/22 04:29:27;;;;;;;40.75;37.70;;;7.40;82.80;;;;;;5094064;28;20206;-73
2022/04/22 04:31:55;;;;;;;36.65;33.67;;;7.40;83.50;;;;;;5094581;28;20545;-73
2022/04/22 04:34:22;;;;;;;34.65;32.15;;;7.40;83.40;;;;;;5094496;28;20229;-73
2022/04/22 04:36:50;;;;;;;37.00;34.30;;;7.40;83.30;;;;;;5094534;28;20202;-73
2022/04/22 04:39:17;;;;;;;40.55;37.85;;;7.40;83.30;;;;;;5093851;28;20202;-72
2022/04/22 04:41:44;;;;;;;36.50;33.72;;;7.40;83.40;;;;;;5094388;28;20309;-73
2022/04/22 04:44:10;;;;;;;37.38;34.78;;;7.50;83.20;;;;;;5094186;28;20307;-73
2022/04/22 04:46:37;;;;;;;39.00;36.20;;;7.50;83.40;;;;;;5094145;28;20668;-73
2022/04/22 04:49:04;;;;;;;36.47;33.80;;;7.60;83.20;;;;;;5094172;28;20199;-73
2022/04/22 04:51:31;;;;;;;34.72;32.13;;;7.60;82.70;;;;;;5093884;28;20201;-73
2022/04/22 04:53:59;;;;;;;35.60;33.20;;;7.70;82.20;;;;;;5094234;28;20238;-73
2022/04/22 04:56:26;;;;;;;35.92;33.22;;;7.60;82.10;;;;;;5094251;28;20292;-73
2022/04/22 04:58:53;;;;;;;38.15;35.33;;;7.60;82.10;;;;;;5093869;28;20203;-73
2022/04/22 05:01:20;;;;;;;36.42;33.88;;;7.70;81.90;;;;;;5093367;28;20204;-73
2022/04/22 05:03:47;;;;;;;36.35;33.75;;;7.60;81.80;;;;;;5094135;28;20214;-73
2022/04/22 05:06:14;;;;;;;38.40;35.50;;;7.60;82.00;;;;;;5093989;28;20204;-73
2022/04/22 05:08:40;;;;;;;38.33;35.33;;;7.60;82.00;;;;;;5093464;28;20198;-73
2022/04/22 05:11:09;;;;;;;37.50;34.50;;;7.70;82.00;;;;;;5093236;28;20681;-73
2022/04/22 05:13:36;;;;;;;39.40;36.63;;;7.80;82.00;;;;;;5093947;28;20804;-73
2022/04/22 05:16:03;;;;;;;37.63;34.63;;;7.80;81.90;;;;;;5093938;28;20288;-73
2022/04/22 05:18:30;;;;;;;40.00;37.00;;;7.80;81.70;;;;;;5093795;28;20195;-73
2022/04/22 05:20:57;;;;;;;38.10;35.20;;;8.00;81.50;;;;;;5092535;28;20206;-73
2022/04/22 05:23:24;;;;;;;38.78;35.97;;;8.00;81.80;;;;;;5093488;28;20230;-73
2022/04/22 05:25:51;;;;;;;45.40;42.40;;;8.00;81.80;;;;;;5093128;28;20294;-73
2022/04/22 05:28:19;;;;;;;37.55;34.17;;;8.10;81.20;;;;;;5093414;28;20198;-73
2022/04/22 05:33:31;;;;;;;42.00;38.78;;;8.20;80.90;;;;;;5093432;28;20288;-73
2022/04/22 05:35:58;;;;;;;43.65;39.92;;;8.20;81.20;;;;;;5093405;28;20196;-73
2022/04/22 05:38:25;;;;;;;43.45;40.00;;;8.30;81.40;;;;;;5093095;28;20668;-73
2022/04/22 05:40:51;;;;;;;48.67;44.83;;;8.40;81.00;;;;;;5093006;28;20210;-73
2022/04/22 05:43:20;;;;;;;44.22;40.83;;;8.50;81.20;;;;;;5093143;28;20276;-73
2022/04/22 05:45:46;;;;;;;44.10;40.80;;;8.60;81.20;;;;;;5093124;28;20203;-73
2022/04/22 05:48:14;;;;;;;46.22;42.55;;;8.60;81.20;;;;;;5093024;28;20289;-73
2022/04/22 05:50:40;;;;;;;43.92;40.03;;;8.70;80.90;;;;;;5092607;28;20202;-73
2022/04/22 05:53:07;;;;;;;45.28;41.45;;;8.90;80.60;;;;;;5092857;28;20582;-73
2022/04/22 05:55:34;;;;;;;46.78;42.50;;;9.10;79.90;;;;;;5092984;28;20242;-73
2022/04/22 05:58:02;;;;;;;47.40;43.38;;;9.20;79.40;;;;;;5092858;28;20206;-73
2022/04/22 06:00:31;;;;;;;49.58;45.55;;;9.20;79.10;;;;;;5092288;28;20202;-73
2022/04/22 06:02:59;;;;;;;46.72;42.75;;;9.30;78.70;;;;;;5092569;28;20684;-73
2022/04/22 06:05:26;;;;;;;47.40;43.50;;;9.40;78.80;;;;;;5092864;28;20292;-73
2022/04/22 06:10:35;;;;;;;46.30;42.75;;;9.40;78.20;;;;;;5092227;28;20190;-73
2022/04/22 06:13:03;;;;;;;47.35;43.35;;;9.40;78.50;;;;;;5092549;28;20215;-73
2022/04/22 06:15:31;;;;;;;48.78;44.65;;;9.60;78.20;;;;;;5092800;28;20196;-73
2022/04/22 06:17:59;;;;;;;47.63;43.83;;;9.70;77.70;;;;;;5092500;28;20196;-73
2022/04/22 06:20:26;;;;;;;48.88;44.67;;;9.80;77.00;;;;;;5091049;28;20286;-73
2022/04/22 06:22:54;;;;;;;51.72;47.42;;;9.80;77.20;;;;;;5092340;28;20216;-73
2022/04/22 06:25:21;;;;;;;50.00;46.10;;;9.70;77.20;;;;;;5092358;28;20195;-73
2022/04/22 06:27:48;;;;;;;51.00;46.50;;;9.80;77.20;;;;;;5092338;28;20192;-73
2022/04/22 06:30:17;;;;;;;45.92;42.10;;;10.00;76.20;;;;;;5092046;28;20290;-73
2022/04/22 06:32:47;;;;;;;48.95;44.95;;;10.00;76.40;;;;;;5092196;28;20221;-73
2022/04/22 06:35:15;;;;;;;47.85;43.75;;;10.10;76.00;;;;;;5092395;28;20195;-74
2022/04/22 06:37:44;;;;;;;51.58;47.25;;;10.10;75.70;;;;;;5092078;28;20238;-74
2022/04/22 06:45:47;;;;;;;46.97;42.97;;;10.10;75.70;;;;;;5092329;28;20272;-74
2022/04/22 06:48:18;;;;;;;48.80;44.83;;;10.10;76.10;;;;;;5092354;28;20676;-74
2022/04/22 06:50:46;;;;;;;52.35;48.45;;;10.10;75.80;;;;;;5091860;28;20191;-74
2022/04/22 06:53:15;;;;;;;49.92;45.80;;;10.20;75.70;;;;;;5092195;28;20219;-74
2022/04/22 06:55:42;;;;;;;50.73;46.30;;;10.50;74.60;;;;;;5092101;28;20210;-74
2022/04/22 06:58:11;;;;;;;47.60;43.80;;;10.50;74.50;;;;;;5092242;28;20552;-74
2022/04/22 07:00:38;;;;;;;50.20;46.40;;;10.60;74.20;;;;;;5091536;28;20230;-74
2022/04/22 07:03:06;;;;;;;51.80;47.93;;;10.60;73.70;;;;;;5091921;28;20229;-73
2022/04/22 07:05:36;;;;;;;49.90;45.80;;;10.70;73.80;;;;;;5092133;28;20450;-74
2022/04/22 07:08:03;;;;;;;46.10;42.57;;;10.80;73.50;;;;;;5091998;28;20456;-74
2022/04/22 07:10:31;;;;;;;46.43;42.73;;;10.80;73.50;;;;;;5091640;28;20503;-74
2022/04/22 07:12:59;;;;;;;47.90;44.10;;;10.60;73.90;;;;;;5091905;28;20966;-74
2022/04/22 07:15:27;;;;;;;49.08;45.17;;;10.50;74.60;;;;;;5092024;28;20930;-74
2022/04/22 07:17:55;;;;;;;47.40;43.50;;;10.60;74.10;;;;;;5091988;28;20540;-74
2022/04/22 07:20:22;;;;;;;46.83;43.33;;;10.60;74.10;;;;;;5090935;28;20467;-74
2022/04/22 07:22:53;;;;;;;47.70;44.00;;;10.50;74.40;;;;;;5091703;28;20477;-74
2022/04/22 07:25:21;;;;;;;48.30;44.27;;;10.60;74.60;;;;;;5091770;28;20476;-74
2022/04/22 07:27:49;;;;;;;48.40;44.60;;;10.60;74.40;;;;;;5091589;28;20828;-74
2022/04/22 07:30:18;;;;;;;47.77;43.87;;;10.90;73.70;;;;;;5091665;28;20446;-74
2022/04/22 07:32:48;;;;;;;47.93;43.93;;;11.00;73.00;;;;;;5095664;28;20441;-73
2022/04/22 07:35:17;;;;;;;47.70;44.00;;;10.90;73.50;;;;;;5095698;28;20453;-74
2022/04/22 07:37:46;;;;;;;49.57;45.17;;;11.10;73.10;;;;;;5095335;28;20510;-74
2022/04/22 07:40:16;;;;;;;47.73;43.80;;;11.20;72.70;;;;;;5095059;28;20448;-74
2022/04/22 07:46:46;;;;;;;49.63;45.50;;;11.00;73.00;;;;;;5095458;28;20560;-74
2022/04/22 07:48:21;;;;;;;47.77;43.77;;;11.30;72.20;;;;;;5095396;28;20515;-74
2022/04/22 07:50:48;;;;;;;50.00;45.90;;;11.20;72.60;;;;;;5094648;28;20545;-74
2022/04/22 07:53:15;;;;;;;47.20;43.33;;;11.10;72.80;;;;;;5095217;28;20472;-74
2022/04/22 07:55:44;;;;;;;47.20;43.43;;;11.20;72.50;;;;;;5095152;28;20453;-74
2022/04/22 07:58:13;;;;;;;46.90;42.83;;;11.30;72.30;;;;;;5095173;28;20481;-74
2022/04/22 08:00:41;;;;;;;51.13;47.10;;;11.10;73.10;;;;;;5094576;28;20453;-74
2022/04/22 08:03:08;;;;;;;49.37;45.33;;;11.00;73.40;;;;;;5094797;28;20481;-74
2022/04/22 08:05:35;;;;;;;48.20;43.93;;;11.20;73.10;;;;;;5095191;28;20537;-74
2022/04/22 08:08:02;;;;;;;47.93;43.83;;;11.40;72.10;;;;;;5094941;28;20455;-74
2022/04/22 08:10:29;;;;;;;50.00;45.70;;;11.40;72.20;;;;;;5094413;28;20446;-74
2022/04/22 08:12:57;;;;;;;49.83;45.93;;;11.40;72.50;;;;;;5094934;28;20465;-74
2022/04/22 08:15:24;;;;;;;47.53;43.57;;;11.60;71.90;;;;;;5094875;28;20453;-74
2022/04/22 08:17:51;;;;;;;46.67;42.87;;;11.50;72.00;;;;;;5094768;28;20449;-74
2022/04/22 08:20:19;;;;;;;49.83;44.83;;;11.30;72.50;;;;;;5093846;28;20465;-74
2022/04/22 08:22:46;;;;;;;48.47;44.53;;;11.30;72.70;;;;;;5094713;28;20508;-74
2022/04/22 08:25:13;;;;;;;48.90;44.63;;;11.40;72.70;;;;;;5094476;28;20533;-73
2022/04/22 08:27:40;;;;;;;46.70;42.87;;;11.40;72.50;;;;;;5094370;28;20476;-74
2022/04/22 08:30:10;;;;;;;46.03;42.40;;;11.50;72.40;;;;;;5094199;28;20537;-74
2022/04/22 08:32:37;;;;;;;47.77;43.90;;;11.70;71.80;;;;;;5094602;28;20476;-74
2022/04/22 08:35:05;;;;;;;49.57;45.57;;;11.90;71.00;;;;;;5094642;28;20481;-74
2022/04/22 08:37:31;;;;;;;47.97;43.80;;;12.00;70.70;;;;;;5094431;28;20482;-74
2022/04/22 08:39:59;;;;;;;46.97;43.17;;;12.10;70.10;;;;;;5093692;28;20550;-74
2022/04/22 08:42:26;;;;;;;47.00;43.10;;;12.10;70.10;;;;;;5093560;28;20452;-74
2022/04/22 08:44:53;;;;;;;47.07;43.37;;;12.30;69.80;;;;;;5094508;28;20469;-74
2022/04/22 08:50:12;;;;;;;46.00;42.30;;;12.60;69.10;;;;;;5072189;28;20502;-74
2022/04/22 08:52:42;;;;;;;46.90;42.93;;;12.70;68.80;;;;;;5093985;28;20456;-74
2022/04/22 08:55:10;;;;;;;46.47;42.80;;;12.70;68.40;;;;;;5094182;28;20533;-74
2022/04/22 08:57:37;;;;;;;45.87;42.37;;;12.60;68.60;;;;;;5094156;28;20446;-74
2022/04/22 09:00:08;;;;;;;47.80;44.00;;;12.60;68.60;;;;;;5093579;28;20463;-74
2022/04/22 09:02:38;;;;;;;46.33;42.43;;;12.50;68.80;;;;;;5094089;28;20450;-74
2022/04/22 09:05:08;;;;;;;44.93;41.20;;;12.70;68.80;;;;;;5094018;28;20460;-74
2022/04/22 09:07:35;;;;;;;45.87;42.17;;;12.90;68.50;;;;;;5094172;28;20457;-74
2022/04/22 09:10:03;;;;;;;45.53;41.70;;;13.00;67.60;;;;;;5093661;28;20465;-74
2022/04/22 09:12:29;;;;;;;45.67;41.83;;;13.00;67.50;;;;;;5094535;28;20449;-74
2022/04/22 09:14:57;;;;;;;44.37;40.97;;;13.00;67.30;;;;;;5094612;28;20455;-73
2022/04/22 09:17:25;;;;;;;44.20;40.70;;;13.00;67.70;;;;;;5096018;28;20456;-74
2022/04/22 09:19:55;;;;;;;43.47;40.23;;;13.20;66.80;;;;;;5093822;28;20866;-74
2022/04/22 09:22:23;;;;;;;44.13;40.73;;;13.30;66.40;;;;;;5094748;28;20829;-74
2022/04/22 09:24:51;;;;;;;44.20;40.80;;;13.40;67.40;;;;;;5094331;28;20824;-74
2022/04/22 09:27:20;;;;;;;43.13;39.87;;;13.50;66.00;;;;;;5094066;28;20544;-74
2022/04/22 09:29:55;;;;;;;45.90;42.40;;;13.50;65.30;;;;;;5093083;28;20544;-74
2022/04/22 09:32:26;;;;;;;43.93;40.57;;;13.60;65.80;;;;;;5093214;28;20572;-74
2022/04/22 09:34:57;;;;;;;44.37;40.87;;;13.80;64.70;;;;;;5093201;28;20466;-74
2022/04/22 09:42:55;;;;;;;42.47;39.43;;;13.90;65.40;;;;;;5093317;28;20453;-74
2022/04/22 09:45:23;;;;;;;45.97;42.60;;;14.10;64.60;;;;;;5093033;28;20450;-74
2022/04/22 09:47:58;;;;;;;44.30;41.00;;;14.30;64.00;;;;;;5093236;28;20456;-74
2022/04/22 09:50:42;;;;;;;43.03;39.73;;;14.30;63.80;;;;;;5092489;28;20457;-74
2022/04/22 09:53:10;;;;;;;42.57;39.27;;;14.20;64.00;;;;;;5092966;28;20549;-74
2022/04/22 09:55:46;;;;;;;47.13;43.23;;;14.20;64.20;;;;;;5092217;28;20806;-74
2022/04/22 09:58:21;;;;;;;42.93;39.63;;;14.20;64.40;;;;;;5092903;28;20784;-74
2022/04/22 10:00:49;;;;;;;44.30;40.80;;;14.40;63.90;;;;;;5092649;28;20456;-74
2022/04/22 10:03:16;;;;;;;43.90;40.43;;;14.60;63.00;;;;;;5092925;28;20561;-74
2022/04/22 10:05:46;;;;;;;44.77;41.17;;;14.80;62.90;;;;;;5092906;28;20823;-74
2022/04/22 10:08:17;;;;;;;45.03;41.50;;;15.10;62.40;;;;;;5092786;28;20461;-74
2022/04/22 10:10:45;;;;;;;43.10;39.80;;;15.10;62.30;;;;;;5092232;28;20541;-74
2022/04/22 10:13:15;;;;;;;45.63;42.10;;;15.30;61.10;;;;;;5092827;28;20556;-74
2022/04/22 10:15:45;;;;;;;43.50;40.20;;;15.30;61.20;;;;;;5092741;28;21303;-74
2022/04/22 10:18:13;;;;;;;42.20;39.10;;;15.20;61.60;;;;;;5092799;28;20485;-75
2022/04/22 10:20:41;;;;;;;43.30;40.00;;;15.10;61.50;;;;;;5091808;28;20469;-74
2022/04/22 10:23:10;;;;;;;44.37;40.93;;;15.00;61.90;;;;;;5092712;28;20477;-74
2022/04/22 10:25:37;;;;;;;40.03;37.13;;;15.20;61.40;;;;;;5092602;28;20449;-74
2022/04/22 10:28:07;;;;;;;41.53;38.57;;;15.40;60.70;;;;;;5092574;28;20815;-74
2022/04/22 10:30:35;;;;;;;43.87;40.77;;;15.30;60.90;;;;;;5092059;28;20450;-74
2022/04/22 10:33:03;;;;;;;42.13;39.20;;;15.50;60.80;;;;;;5092479;28;20526;-74
2022/04/22 10:35:30;;;;;;;42.37;39.43;;;15.70;59.80;;;;;;5092565;28;20510;-74
2022/04/22 10:38:00;;;;;;;42.87;39.77;;;15.60;60.20;;;;;;5092484;28;20453;-74
2022/04/22 10:40:28;;;;;;;42.93;39.93;;;15.80;60.00;;;;;;5091601;28;20445;-74
2022/04/22 10:42:58;;;;;;;42.90;38.80;;;15.80;59.90;;;;;;5092222;28;20470;-74
2022/04/22 10:48:20;;;;;;;43.13;40.07;;;16.10;59.30;;;;;;5092947;28;20429;-74
2022/04/22 10:50:57;;;;;;;41.10;38.17;;;16.00;58.90;;;;;;5091975;28;20450;-74
2022/04/22 10:53:25;;;;;;;42.70;39.60;;;15.80;59.50;;;;;;5092169;28;20466;-74
2022/04/22 10:55:54;;;;;;;42.00;38.90;;;15.90;59.50;;;;;;5092218;28;20453;-74
2022/04/22 10:58:24;;;;;;;39.13;36.37;;;16.00;59.50;;;;;;5092136;28;20441;-74
2022/04/22 11:00:54;;;;;;;41.63;37.90;;;16.20;59.00;;;;;;5091618;28;20806;-74
2022/04/22 11:03:22;;;;;;;42.43;39.30;;;16.30;58.50;;;;;;5092063;28;20970;-74
2022/04/22 11:05:55;;;;;;;40.77;37.83;;;16.60;57.70;;;;;;5093433;28;20930;-74
2022/04/22 11:08:33;;;;;;;41.00;38.30;;;16.60;57.60;;;;;;5096230;28;20538;-74
2022/04/22 11:11:19;;;;;;;39.50;36.70;;;16.60;57.60;;;;;;5095551;28;20510;-74
2022/04/22 11:13:52;;;;;;;40.33;37.43;;;16.60;58.10;;;;;;5095963;28;20504;-74
2022/04/22 11:16:30;;;;;;;41.40;38.50;;;16.50;58.10;;;;;;5096351;28;20445;-74
2022/04/22 11:19:26;;;;;;;43.40;40.20;;;16.60;58.30;;;;;;5095676;28;20441;-74
2022/04/22 11:21:55;;;;;;;43.10;40.10;;;16.40;58.50;;;;;;5096130;28;20538;-74
2022/04/22 11:24:24;;;;;;;44.80;41.40;;;16.40;59.20;;;;;;5095791;28;20907;-74
2022/04/22 11:26:53;;;;;;;40.37;37.53;;;16.50;58.50;;;;;;5095608;28;20461;-74
2022/04/22 11:29:21;;;;;;;41.10;38.10;;;16.60;57.90;;;;;;5095277;28;20456;-74
2022/04/22 11:32:05;;;;;;;41.73;38.77;;;16.50;58.20;;;;;;5095920;28;20461;-74
2022/04/22 11:35:04;;;;;;;39.80;36.87;;;16.50;58.40;;;;;;5095722;28;20502;-74
2022/04/22 11:37:33;;;;;;;43.00;39.93;;;16.40;58.40;;;;;;5095815;28;20454;-74
2022/04/22 11:40:00;;;;;;;41.40;38.50;;;16.50;57.90;;;;;;5095065;28;20492;-74
2022/04/22 11:42:29;;;;;;;41.63;38.63;;;16.70;57.50;;;;;;5095728;28;20822;-74
2022/04/22 11:45:03;;;;;;;42.07;38.97;;;16.90;57.40;;;;;;5095410;28;20513;-74
2022/04/22 11:47:30;;;;;;;41.90;38.80;;;17.10;56.60;;;;;;5095359;28;20448;-74
2022/04/22 11:49:57;;;;;;;42.47;39.53;;;16.90;57.00;;;;;;5094971;28;20492;-74
2022/04/22 11:52:24;;;;;;;41.50;38.60;;;16.90;57.60;;;;;;5095346;28;20553;-74
2022/04/22 11:54:51;;;;;;;41.73;38.63;;;16.90;57.80;;;;;;5095246;28;20982;-74
2022/04/22 11:57:18;;;;;;;40.47;37.60;;;17.00;57.30;;;;;;5095078;28;20937;-74
2022/04/22 12:05:32;;;;;;;39.47;36.67;;;17.10;57.00;;;;;;5094746;28;20946;-74
2022/04/22 12:05:33;;;;;;;42.30;39.20;;;17.40;56.10;;;;;;5095104;28;20481;-74
2022/04/22 12:08:05;;;;;;;39.40;36.50;;;17.70;55.40;;;;;;5094987;28;21022;-74
2022/04/22 12:10:33;;;;;;;41.10;38.13;;;17.80;54.70;;;;;;5094422;28;20449;-75
2022/04/22 12:13:02;;;;;;;39.37;36.67;;;17.70;54.80;;;;;;5094911;28;20469;-74
2022/04/22 12:15:31;;;;;;;38.90;36.10;;;17.80;54.70;;;;;;5094916;28;20550;-74
2022/04/22 12:17:58;;;;;;;38.13;35.17;;;17.60;54.80;;;;;;5093821;28;20627;-74
2022/04/22 12:20:26;;;;;;;39.17;36.50;;;17.70;55.10;;;;;;5093862;28;20473;-74
2022/04/22 12:22:55;;;;;;;37.40;34.90;;;17.90;54.90;;;;;;5094695;28;20476;-74
2022/04/22 12:25:23;;;;;;;39.93;37.13;;;18.00;54.80;;;;;;5094460;28;20473;-75
2022/04/22 12:28:12;;;;;;;39.03;36.23;;;18.10;54.10;;;;;;5094648;28;20843;-75
2022/04/22 12:30:43;;;;;;;41.63;38.73;;;18.20;53.80;;;;;;5094261;28;20941;-74
2022/04/22 12:33:18;;;;;;;36.70;34.30;;;18.40;53.90;;;;;;5094601;28;20527;-74
2022/04/22 12:35:45;;;;;;;39.53;36.43;;;18.80;53.30;;;;;;5094570;28;20440;-74
2022/04/22 12:38:14;;;;;;;37.80;35.20;;;19.00;52.30;;;;;;5094578;28;20438;-75
2022/04/22 12:40:48;;;;;;;38.50;35.90;;;19.10;51.90;;;;;;5094137;28;20958;-75
2022/04/22 12:43:23;;;;;;;38.87;36.20;;;19.00;51.80;;;;;;5094380;28;20880;-75
2022/04/22 12:54:11;;;;;;;38.47;35.83;;;19.20;52.00;;;;;;5086694;28;20989;-75
2022/04/22 12:56:38;;;;;;;37.90;35.20;;;19.30;51.60;;;;;;5094148;28;20536;-75
2022/04/22 12:59:06;;;;;;;39.70;36.50;;;19.40;51.60;;;;;;5093738;28;20453;-74
2022/04/22 13:01:37;;;;;;;40.47;37.67;;;19.40;51.60;;;;;;5093587;28;20527;-74
2022/04/22 13:04:05;;;;;;;39.90;36.93;;;19.60;50.80;;;;;;5093792;28;20481;-75
2022/04/22 13:06:42;;;;;;;38.30;35.40;;;19.50;51.00;;;;;;5093844;28;21022;-74
2022/04/22 13:09:10;;;;;;;38.50;35.80;;;19.60;50.10;;;;;;5093392;28;21007;-75
2022/04/22 13:11:37;;;;;;;41.07;38.27;;;19.50;50.60;;;;;;5093973;28;20461;-75
2022/04/22 13:14:06;;;;;;;38.20;35.40;;;19.60;50.50;;;;;;5093757;28;20549;-74
2022/04/22 13:16:34;;;;;;;39.60;37.00;;;19.40;50.70;;;;;;5093888;28;20450;-74
2022/04/22 13:19:02;;;;;;;39.20;36.17;;;19.60;50.20;;;;;;5093212;28;20569;-75
2022/04/22 13:21:30;;;;;;;35.77;33.43;;;19.60;50.00;;;;;;5092903;28;20967;-75
2022/04/22 13:23:57;;;;;;;36.90;34.40;;;19.50;50.10;;;;;;5093385;28;20560;-75
2022/04/22 13:26:25;;;;;;;35.03;32.70;;;19.40;49.90;;;;;;5093223;28;20462;-75
2022/04/22 13:28:54;;;;;;;37.40;34.77;;;19.40;50.00;;;;;;5093215;28;21030;-75
2022/04/22 13:31:22;;;;;;;36.00;33.60;;;19.50;49.70;;;;;;5092889;28;20587;-74
2022/04/22 13:33:50;;;;;;;36.33;33.93;;;19.50;49.70;;;;;;5093266;28;20473;-74
2022/04/22 13:36:17;;;;;;;36.20;33.67;;;19.30;49.80;;;;;;5093482;28;20454;-74
2022/04/22 13:38:44;;;;;;;36.00;33.60;;;19.40;50.10;;;;;;5093298;28;20892;-75